Time;durP1;ratioP1;P1;durP2;ratioP2;P2;SDS_P1;SDS_P2;PMS_P1;PMS_P2;Temp;Humidity;BMP_temperature;BMP_pressure;BME280_temperature;BME280_humidity;BME280_pressure;Samples;Min_cycle;Max_cycle;Signal;HPM_P1;HPM_P2
2021/04/26 00:02:17;;;;;;;2.88;0.80;;;;;;;7.74;44.23;99623.53;1976176;79;49518;-76
2021/04/26 00:05:18;;;;;;;1.75;0.69;;;;;;;7.70;44.31;99613.09;1978210;82;20193;-76
2021/04/26 00:08:20;;;;;;;3.25;0.86;;;;;;;7.67;44.43;99613.94;1976204;82;20169;-76
2021/04/26 00:11:22;;;;;;;4.24;1.20;;;;;;;7.65;44.61;99612.19;1976340;82;20321;-79
2021/04/26 00:14:24;;;;;;;1.59;0.71;;;;;;;7.58;44.66;99601.81;1976338;82;20193;-77
2021/04/26 00:17:25;;;;;;;3.04;1.00;;;;;;;7.59;44.58;99584.59;1980293;79;36856;-77
2021/04/26 00:20:30;;;;;;;1.96;0.90;;;;;;;7.56;44.54;99585.44;1981265;81;20276;-76
2021/04/26 00:23:31;;;;;;;2.53;0.85;;;;;;;7.54;44.77;99587.13;1985020;81;20227;-79
2021/04/26 00:26:33;;;;;;;2.20;0.90;;;;;;;7.47;44.99;99582.72;1981860;81;20215;-78
2021/04/26 00:29:35;;;;;;;3.50;0.90;;;;;;;7.44;44.89;99587.00;1981535;81;20180;-78
2021/04/26 00:32:37;;;;;;;2.67;0.93;;;;;;;7.38;45.30;99590.41;1976419;79;24876;-77
2021/04/26 00:35:39;;;;;;;2.41;0.69;;;;;;;7.29;45.12;99585.09;1981119;81;20519;-76
2021/04/26 00:38:40;;;;;;;4.07;0.94;;;;;;;7.28;45.12;99565.28;1981200;81;20168;-77
2021/04/26 00:41:42;;;;;;;2.33;0.86;;;;;;;7.24;45.45;99561.81;1980319;81;20224;-77
2021/04/26 00:44:44;;;;;;;3.67;1.05;;;;;;;7.18;45.65;99556.59;1981432;81;20346;-77
2021/04/26 00:47:46;;;;;;;2.78;1.05;;;;;;;7.15;45.72;99550.50;1985090;79;24071;-78
2021/04/26 00:50:48;;;;;;;2.84;1.10;;;;;;;7.12;46.06;99542.72;1986293;81;20332;-76
2021/04/26 00:53:50;;;;;;;4.71;1.17;;;;;;;7.11;46.25;99543.56;1986384;81;20180;-78
2021/04/26 00:56:53;;;;;;;4.41;1.67;;;;;;;7.09;46.28;99553.00;1985803;81;21188;-76
2021/04/26 00:59:54;;;;;;;3.44;1.10;;;;;;;7.02;46.32;99553.81;1986847;81;21111;-77
2021/04/26 01:02:56;;;;;;;2.26;1.10;;;;;;;6.93;46.68;99552.81;1980489;79;23335;-77
2021/04/26 01:05:58;;;;;;;3.61;1.01;;;;;;;6.87;46.98;99551.88;1980843;81;20225;-76
2021/04/26 01:09:00;;;;;;;3.21;0.88;;;;;;;6.76;47.14;99558.59;1981265;82;20176;-76
2021/04/26 01:12:30;;;;;;;1.88;0.99;;;;;;;6.71;47.07;99549.94;1981053;81;20839;-77
2021/04/26 01:15:45;;;;;;;1.45;0.70;;;;;;;6.70;46.88;99549.09;1981144;79;35072;-78
2021/04/26 01:18:53;;;;;;;3.96;0.60;;;;;;;6.66;46.99;99543.03;1986161;81;20593;-76
2021/04/26 01:22:23;;;;;;;3.03;0.61;;;;;;;6.63;47.02;99532.63;1986441;81;20361;-77
2021/04/26 01:25:24;;;;;;;;;;;;;;;6.62;46.90;99530.03;1985588;81;20369;-77
2021/04/26 01:29:00;;;;;;;1.41;0.60;;;;;;;6.61;46.88;99511.09;1986089;81;20055;-77
2021/04/26 01:32:17;;;;;;;2.96;1.01;;;;;;;6.61;47.01;99526.59;1983047;79;29425;-76
2021/04/26 01:35:21;;;;;;;1.29;0.99;;;;;;;6.51;47.22;99518.72;1981394;81;20926;-77
2021/04/26 01:38:36;;;;;;;3.70;0.60;;;;;;;6.51;47.15;99518.72;1980619;81;20361;-76
2021/04/26 01:41:39;;;;;;;2.56;0.60;;;;;;;6.46;47.16;99510.03;1980981;81;21064;-77
2021/04/26 01:44:40;;;;;;;1.01;0.60;;;;;;;6.43;47.32;99517.72;1980544;81;20371;-78
2021/04/26 01:47:44;;;;;;;1.61;0.85;;;;;;;6.42;47.59;99508.25;1983948;79;37741;-77
2021/04/26 01:50:47;;;;;;;1.51;0.50;;;;;;;6.36;47.69;99502.19;1986701;81;20357;-78
2021/04/26 01:53:50;;;;;;;2.92;0.60;;;;;;;6.32;47.68;99495.25;1987084;81;20365;-76
2021/04/26 01:56:55;;;;;;;2.28;0.77;;;;;;;6.33;47.60;99502.13;1986804;81;20870;-77
2021/04/26 02:00:01;;;;;;;3.24;0.90;;;;;;;6.28;47.77;99498.63;1987271;81;20334;-77
2021/04/26 02:03:04;;;;;;;2.85;1.25;;;;;;;6.24;47.55;99504.56;1977431;79;30889;-77
2021/04/26 02:06:07;;;;;;;2.65;0.68;;;;;;;6.16;47.98;99513.06;1980771;81;20394;-75
2021/04/26 02:09:08;;;;;;;1.01;0.70;;;;;;;6.13;48.44;99523.31;1978413;82;20334;-77
2021/04/26 02:12:12;;;;;;;0.96;0.52;;;;;;;6.02;50.15;99521.44;1977826;82;20820;-76
2021/04/26 02:15:17;;;;;;;2.06;0.60;;;;;;;5.92;50.61;99523.81;1976143;79;60409;-76
2021/04/26 02:18:19;;;;;;;1.36;0.82;;;;;;;5.76;50.72;99521.00;1978586;82;20839;-76
2021/04/26 02:21:21;;;;;;;2.54;0.80;;;;;;;5.65;51.17;99519.94;1977681;82;20334;-78
2021/04/26 02:24:22;;;;;;;1.39;0.60;;;;;;;5.47;51.23;99529.91;1978278;82;20898;-76
2021/04/26 02:27:24;;;;;;;2.38;0.69;;;;;;;5.35;52.63;99527.09;1978274;82;20334;-77
2021/04/26 02:30:27;;;;;;;2.29;0.69;;;;;;;5.24;52.54;99520.91;1978849;79;27574;-78
2021/04/26 02:33:34;;;;;;;1.99;0.81;;;;;;;5.09;53.22;99524.03;1986882;81;20338;-77
2021/04/26 02:36:42;;;;;;;1.75;0.68;;;;;;;5.01;53.07;99520.44;1982564;81;20333;-76
2021/04/26 02:39:46;;;;;;;1.52;0.80;;;;;;;4.93;53.17;99519.41;1983291;81;20864;-76
2021/04/26 02:42:50;;;;;;;1.20;0.60;;;;;;;4.94;53.26;99526.31;1982939;81;20720;-76
2021/04/26 02:45:55;;;;;;;2.09;0.91;;;;;;;4.88;53.15;99523.63;1983017;79;36873;-76
2021/04/26 02:48:58;;;;;;;2.41;0.93;;;;;;;4.89;52.98;99525.34;1982904;81;20325;-76
2021/04/26 02:52:01;;;;;;;4.19;1.31;;;;;;;4.88;52.72;99521.03;1982872;81;20342;-77
2021/04/26 02:55:09;;;;;;;4.10;1.66;;;;;;;4.91;52.75;99519.41;1983641;81;20336;-77
2021/04/26 02:58:12;;;;;;;1.35;0.70;;;;;;;4.97;52.53;99522.06;1982591;81;20313;-76
2021/04/26 03:01:15;;;;;;;1.49;0.91;;;;;;;5.06;52.18;99514.56;1980265;79;23741;-76
2021/04/26 03:04:19;;;;;;;3.61;0.85;;;;;;;5.04;52.13;99505.94;1976817;82;20354;-75
2021/04/26 03:07:22;;;;;;;2.49;0.71;;;;;;;5.09;52.05;99516.31;1977064;82;20316;-76
2021/04/26 03:10:24;;;;;;;1.96;0.66;;;;;;;5.14;51.88;99507.84;1977370;82;20338;-76
2021/04/26 03:13:28;;;;;;;3.55;0.80;;;;;;;5.17;51.91;99504.44;1976304;82;20355;-76
2021/04/26 03:16:30;;;;;;;2.13;0.80;;;;;;;5.22;51.67;99496.84;1978232;79;22655;-76
2021/04/26 03:19:32;;;;;;;4.69;1.19;;;;;;;5.24;51.64;99493.44;1981429;81;20305;-76
2021/04/26 03:22:34;;;;;;;2.85;1.00;;;;;;;5.25;51.50;99491.75;1982088;81;20330;-76
2021/04/26 03:25:36;;;;;;;2.11;1.23;;;;;;;5.25;51.85;99486.59;1981659;81;20351;-76
2021/04/26 03:28:42;;;;;;;3.17;0.98;;;;;;;5.18;52.17;99488.16;1982046;81;20321;-78
2021/04/26 03:31:46;;;;;;;3.53;1.40;;;;;;;5.16;52.24;99476.97;1977776;79;28403;-77
2021/04/26 03:34:48;;;;;;;3.29;1.16;;;;;;;5.14;52.29;99473.50;1979691;81;20336;-76
2021/04/26 03:37:52;;;;;;;3.80;1.54;;;;;;;5.15;52.27;99483.84;1981941;81;20346;-76
2021/04/26 03:40:54;;;;;;;3.79;1.30;;;;;;;5.02;52.60;99487.00;1981470;81;20778;-76
2021/04/26 03:43:56;;;;;;;5.05;1.42;;;;;;;5.01;52.49;99490.41;1981730;81;20350;-76
2021/04/26 03:47:00;;;;;;;2.44;1.11;;;;;;;4.94;52.99;99477.41;1983257;79;78567;-76
2021/04/26 03:50:03;;;;;;;5.04;1.20;;;;;;;4.95;52.93;99477.44;1987213;81;20899;-75
2021/04/26 03:53:04;;;;;;;2.61;1.26;;;;;;;4.91;52.89;99475.66;1986475;81;20336;-76
2021/04/26 03:56:06;;;;;;;5.24;1.34;;;;;;;4.86;52.90;99469.56;1986429;81;20312;-76
2021/04/26 03:59:08;;;;;;;2.99;1.10;;;;;;;4.77;53.38;99467.66;1986969;81;20361;-76
2021/04/26 04:02:11;;;;;;;3.67;1.19;;;;;;;4.76;53.85;99463.34;1985011;79;27921;-76
2021/04/26 04:05:14;;;;;;;3.88;1.19;;;;;;;4.75;53.72;99451.34;1987132;81;20360;-76
2021/04/26 04:08:15;;;;;;;2.72;1.08;;;;;;;4.72;53.79;99455.56;1986476;81;21245;-76
2021/04/26 04:11:17;;;;;;;4.53;0.98;;;;;;;4.70;53.92;99459.81;1986766;81;20363;-76
2021/04/26 04:14:19;;;;;;;4.06;1.10;;;;;;;4.69;54.15;99464.09;1986149;81;20920;-76
2021/04/26 04:17:20;;;;;;;2.56;0.80;;;;;;;4.68;54.25;99461.47;1986420;79;33851;-76
2021/04/26 04:20:22;;;;;;;2.15;0.89;;;;;;;4.66;54.36;99458.84;1986280;81;20343;-76
2021/04/26 04:23:23;;;;;;;1.56;0.80;;;;;;;4.63;54.43;99458.78;1986160;81;20403;-76
2021/04/26 04:26:25;;;;;;;2.59;1.30;;;;;;;4.65;54.34;99459.69;1986346;81;20353;-76
2021/04/26 04:29:27;;;;;;;3.91;1.01;;;;;;;4.66;54.53;99446.00;1986485;81;20847;-75
2021/04/26 04:32:28;;;;;;;4.21;1.74;;;;;;;4.60;54.95;99452.72;1981350;79;31070;-76
2021/04/26 04:35:30;;;;;;;3.42;1.25;;;;;;;4.60;54.88;99457.88;1981378;81;20458;-76
2021/04/26 04:38:32;;;;;;;6.41;1.71;;;;;;;4.64;54.58;99442.53;1981591;81;20344;-76
2021/04/26 04:41:33;;;;;;;9.73;2.20;;;;;;;4.71;54.35;99462.41;1981555;81;20331;-76
2021/04/26 04:44:35;;;;;;;5.00;1.41;;;;;;;4.75;54.14;99459.06;1981749;81;20344;-76
2021/04/26 04:47:37;;;;;;;8.29;1.39;;;;;;;4.82;53.73;99460.03;1985031;79;27229;-77
2021/04/26 04:50:39;;;;;;;3.84;1.44;;;;;;;4.87;53.77;99462.72;1985851;81;20331;-77
2021/04/26 04:53:41;;;;;;;4.70;1.94;;;;;;;4.89;53.79;99461.91;1986501;81;20346;-77
2021/04/26 04:56:42;;;;;;;6.11;1.29;;;;;;;4.96;53.48;99466.31;1986093;81;20320;-77
2021/04/26 04:59:44;;;;;;;5.45;1.52;;;;;;;5.01;53.45;99464.69;1986185;81;20327;-76
2021/04/26 05:02:45;;;;;;;9.90;1.80;;;;;;;5.07;53.12;99462.25;1980627;79;24646;-76
2021/04/26 05:05:47;;;;;;;3.44;1.20;;;;;;;5.11;53.41;99469.19;1980312;81;20340;-76
2021/04/26 05:08:49;;;;;;;2.28;0.98;;;;;;;5.16;53.06;99461.53;1981520;81;20390;-78
2021/04/26 05:11:51;;;;;;;5.16;0.90;;;;;;;5.24;52.71;99462.56;1981581;81;20984;-77
2021/04/26 05:14:52;;;;;;;3.76;0.95;;;;;;;5.34;52.37;99461.88;1981608;81;20341;-76
2021/04/26 05:17:55;;;;;;;3.99;1.40;;;;;;;5.39;52.05;99461.97;1984543;79;26165;-78
2021/04/26 05:20:56;;;;;;;3.09;1.35;;;;;;;5.50;51.84;99467.28;1985587;81;20340;-76
2021/04/26 05:23:58;;;;;;;5.32;1.48;;;;;;;5.61;51.67;99464.06;1986404;81;20342;-78
2021/04/26 05:27:00;;;;;;;4.84;1.70;;;;;;;5.73;51.39;99463.38;1986332;81;20344;-77
2021/04/26 05:30:06;;;;;;;6.95;1.45;;;;;;;5.83;51.49;99467.84;1986110;81;20321;-78
2021/04/26 05:33:07;;;;;;;4.18;1.20;;;;;;;5.95;51.43;99468.06;1980994;79;27491;-77
2021/04/26 05:36:09;;;;;;;6.88;1.24;;;;;;;6.06;50.92;99468.22;1981034;82;20325;-77
2021/04/26 05:39:11;;;;;;;7.03;1.40;;;;;;;6.25;50.61;99465.06;1981358;81;20329;-78
2021/04/26 05:42:13;;;;;;;6.20;1.34;;;;;;;7.07;48.99;99460.06;1981323;82;20346;-80
2021/04/26 05:45:18;;;;;;;2.95;1.26;;;;;;;8.08;46.49;99454.06;1980881;79;26503;-79
2021/04/26 05:48:19;;;;;;;4.72;0.86;;;;;;;8.65;44.49;99454.38;1983309;81;20203;-78
2021/04/26 05:51:21;;;;;;;3.99;1.10;;;;;;;9.01;43.70;99459.69;1985427;81;20205;-78
2021/04/26 05:54:23;;;;;;;3.89;1.15;;;;;;;9.19;42.94;99465.78;1986500;81;20529;-78
2021/04/26 05:57:24;;;;;;;3.96;1.35;;;;;;;9.33;42.23;99459.75;1986407;81;20267;-79
2021/04/26 06:00:26;;;;;;;4.66;1.50;;;;;;;9.57;41.53;99464.13;1985146;79;36468;-80
2021/04/26 06:03:33;;;;;;;2.19;1.10;;;;;;;9.85;40.80;99466.69;1986349;81;20658;-80
2021/04/26 06:06:34;;;;;;;2.34;1.00;;;;;;;10.20;40.19;99458.88;1986130;81;20194;-77
2021/04/26 06:09:36;;;;;;;2.42;0.85;;;;;;;10.40;39.37;99445.88;1986829;81;20202;-79
2021/04/26 06:12:38;;;;;;;3.22;0.90;;;;;;;10.52;39.19;99456.25;1986543;81;20210;-78
2021/04/26 06:15:40;;;;;;;5.80;1.30;;;;;;;10.80;38.45;99444.91;1986310;79;23504;-79
2021/04/26 06:18:42;;;;;;;1.50;0.90;;;;;;;11.14;37.58;99440.38;1986817;81;20901;-77
2021/04/26 06:21:44;;;;;;;2.83;0.93;;;;;;;11.34;36.89;99437.66;1985875;81;20233;-76
2021/04/26 06:24:46;;;;;;;3.69;1.36;;;;;;;11.63;36.30;99428.75;1985996;81;20213;-77
2021/04/26 06:27:48;;;;;;;2.24;1.00;;;;;;;11.89;35.52;99431.19;1986492;81;20187;-77
2021/04/26 06:30:50;;;;;;;3.08;1.30;;;;;;;12.15;35.17;99437.00;1982848;79;118156;-78
2021/04/26 06:33:52;;;;;;;2.79;0.88;;;;;;;12.28;34.70;99420.38;1980642;81;20202;-80
2021/04/26 06:36:55;;;;;;;5.53;1.79;;;;;;;12.33;34.25;99418.56;1982120;81;20350;-80
2021/04/26 06:39:56;;;;;;;3.31;0.90;;;;;;;12.32;34.68;99421.19;1983003;81;20263;-77
2021/04/26 06:42:58;;;;;;;2.10;0.80;;;;;;;12.32;34.58;99414.25;1982560;81;20202;-75
2021/04/26 06:46:00;;;;;;;2.80;1.06;;;;;;;12.14;34.29;99409.25;1982745;79;21301;-77
2021/04/26 06:49:02;;;;;;;3.09;1.00;;;;;;;12.24;34.55;99403.06;1989391;81;20198;-76
2021/04/26 06:52:04;;;;;;;2.74;1.20;;;;;;;12.44;34.66;99415.00;1986805;81;20235;-77
2021/04/26 06:55:07;;;;;;;3.92;1.51;;;;;;;12.65;34.04;99407.78;1986754;81;20179;-76
2021/04/26 06:58:09;;;;;;;3.65;1.14;;;;;;;12.63;34.43;99411.28;1985994;81;20179;-76
2021/04/26 07:01:11;;;;;;;2.41;1.20;;;;;;;12.69;33.62;99412.06;1983943;79;22296;-77
2021/04/26 07:04:18;;;;;;;1.99;0.81;;;;;;;12.93;33.32;99402.22;1982060;81;20705;-76
2021/04/26 07:07:20;;;;;;;5.14;1.26;;;;;;;13.15;32.88;99403.63;1982953;81;20176;-79
2021/04/26 07:10:22;;;;;;;5.60;1.27;;;;;;;13.29;32.67;99398.25;1982363;81;20193;-78
2021/04/26 07:13:24;;;;;;;3.92;1.23;;;;;;;13.41;32.76;99398.03;1984587;81;20209;-75
2021/04/26 07:16:26;;;;;;;8.98;1.39;;;;;;;13.50;32.39;99394.44;1983579;79;22326;-75
2021/04/26 07:19:28;;;;;;;2.16;1.08;;;;;;;13.71;32.16;99399.31;1989588;81;20212;-77
2021/04/26 07:22:30;;;;;;;4.68;0.96;;;;;;;13.84;31.85;99389.53;1989504;81;20199;-77
2021/04/26 07:25:32;;;;;;;4.54;0.93;;;;;;;13.90;31.79;99378.97;1986827;81;20194;-80
2021/04/26 07:28:33;;;;;;;3.45;1.31;;;;;;;14.01;31.55;99387.47;1987530;81;20638;-79
2021/04/26 07:31:35;;;;;;;2.86;0.95;;;;;;;13.96;31.63;99388.41;1983736;79;21396;-77
2021/04/26 07:34:37;;;;;;;6.84;1.38;;;;;;;14.24;31.29;99383.56;1982465;81;20303;-78
2021/04/26 07:37:40;;;;;;;6.93;2.10;;;;;;;14.36;31.32;99399.84;1981942;81;20176;-77
2021/04/26 07:40:42;;;;;;;3.96;1.61;;;;;;;14.51;30.82;99409.16;1982721;81;20291;-78
2021/04/26 07:43:44;;;;;;;9.96;1.80;;;;;;;14.79;30.82;99402.47;1982853;81;20204;-80
2021/04/26 07:46:45;;;;;;;10.20;2.49;;;;;;;14.96;29.78;99409.09;1986658;79;20876;-81
2021/04/26 07:49:47;;;;;;;9.95;2.60;;;;;;;15.03;30.16;99405.44;1987328;81;20213;-80
2021/04/26 07:53:08;;;;;;;4.79;1.65;;;;;;;15.23;29.95;99402.38;1989758;81;20276;-79
2021/04/26 07:56:10;;;;;;;3.59;1.45;;;;;;;15.50;30.42;99390.41;1987230;81;20184;-79
2021/04/26 07:59:12;;;;;;;3.65;1.51;;;;;;;15.69;29.80;99389.94;1988491;81;20712;-78
2021/04/26 08:02:14;;;;;;;3.30;1.10;;;;;;;15.80;29.09;99410.63;1982524;79;23603;-78
2021/04/26 08:05:15;;;;;;;2.90;1.20;;;;;;;15.88;28.67;99395.56;1982630;81;20184;-79
2021/04/26 08:08:17;;;;;;;8.27;1.26;;;;;;;15.99;28.57;99397.94;1983126;82;20209;-78
2021/04/26 08:11:19;;;;;;;2.25;0.93;;;;;;;16.01;28.62;99393.50;1983345;81;20188;-78
2021/04/26 08:14:21;;;;;;;2.17;0.82;;;;;;;16.07;28.75;99388.09;1986308;81;20604;-79
2021/04/26 08:17:22;;;;;;;5.45;1.15;;;;;;;16.04;28.94;99388.19;1985282;80;26750;-78
2021/04/26 08:20:24;;;;;;;5.60;1.09;;;;;;;16.21;28.27;99388.59;1988025;81;20854;-78
2021/04/26 08:23:26;;;;;;;2.30;0.91;;;;;;;16.26;27.60;99378.81;1988016;81;20285;-79
2021/04/26 08:26:28;;;;;;;1.99;1.09;;;;;;;16.39;28.32;99376.72;1987472;81;20623;-79
2021/04/26 08:29:30;;;;;;;3.26;1.10;;;;;;;16.58;28.02;99375.31;1987540;81;20189;-78
2021/04/26 08:32:32;;;;;;;3.54;0.96;;;;;;;16.62;27.93;99382.16;1979858;81;22387;-78
2021/04/26 08:35:34;;;;;;;2.35;1.29;;;;;;;16.75;28.45;99376.59;1980884;81;20184;-78
2021/04/26 08:38:36;;;;;;;4.91;1.02;;;;;;;16.93;28.10;99376.06;1979684;81;20184;-78
2021/04/26 08:41:42;;;;;;;1.54;0.73;;;;;;;17.09;27.55;99368.56;1980548;81;20315;-77
2021/04/26 08:44:44;;;;;;;4.56;1.55;;;;;;;17.32;27.34;99370.47;1979320;81;20208;-78
2021/04/26 08:47:46;;;;;;;2.36;1.11;;;;;;;17.36;26.83;99364.19;1984778;79;22275;-78
2021/04/26 08:50:48;;;;;;;3.71;1.30;;;;;;;17.27;26.60;99359.25;1985206;81;20203;-78
2021/04/26 08:53:50;;;;;;;4.40;1.46;;;;;;;17.14;27.60;99357.00;1984847;81;20309;-77
2021/04/26 08:56:52;;;;;;;3.88;1.19;;;;;;;17.25;26.75;99355.84;1984698;81;20680;-77
2021/04/26 08:59:54;;;;;;;2.67;1.11;;;;;;;17.36;27.09;99351.94;1988144;81;20251;-78
2021/04/26 09:02:58;;;;;;;2.53;1.10;;;;;;;17.47;26.94;99360.31;1980131;79;31712;-77
2021/04/26 09:06:00;;;;;;;4.70;1.10;;;;;;;17.60;26.87;99349.44;1979413;81;20209;-78
2021/04/26 09:09:02;;;;;;;3.04;0.90;;;;;;;17.71;26.47;99344.69;1980502;81;20222;-77
2021/04/26 09:12:07;;;;;;;2.19;1.19;;;;;;;17.81;26.89;99348.72;1981969;82;20980;-77
2021/04/26 09:15:09;;;;;;;8.86;1.21;;;;;;;17.87;26.93;99348.50;1982123;81;20750;-78
2021/04/26 09:18:11;;;;;;;3.78;0.80;;;;;;;18.05;26.21;99341.75;1986850;79;20645;-77
2021/04/26 09:21:20;;;;;;;2.44;0.80;;;;;;;18.06;26.24;99344.31;1987444;81;20164;-77
2021/04/26 09:24:25;;;;;;;2.88;0.84;;;;;;;18.03;26.41;99341.78;1986850;81;20298;-76
2021/04/26 09:27:27;;;;;;;4.32;0.94;;;;;;;18.14;26.35;99343.19;1986984;81;20163;-76
2021/04/26 09:30:36;;;;;;;6.49;1.70;;;;;;;18.09;26.63;99336.31;1985555;79;24566;-75
2021/04/26 09:33:39;;;;;;;1.74;1.08;;;;;;;18.30;26.77;99329.41;1981355;82;20636;-75
2021/04/26 09:36:41;;;;;;;2.66;0.95;;;;;;;18.42;26.54;99333.38;1981330;82;21026;-77
2021/04/26 09:40:05;;;;;;;1.44;1.00;;;;;;;18.43;25.87;99337.72;1982019;81;20908;-76
2021/04/26 09:43:20;;;;;;;3.94;1.66;;;;;;;18.52;25.63;99331.28;1981693;82;20173;-77
2021/04/26 09:46:22;;;;;;;1.73;1.00;;;;;;;18.58;25.70;99326.63;1980351;79;21162;-75
2021/04/26 09:49:27;;;;;;;2.26;0.85;;;;;;;18.62;25.89;99322.09;1981418;82;20948;-74
2021/04/26 09:52:29;;;;;;;3.44;1.10;;;;;;;18.87;25.17;99322.91;1981385;81;20176;-76
2021/04/26 09:55:31;;;;;;;3.55;1.20;;;;;;;18.79;25.60;99310.97;1981485;81;20781;-76
2021/04/26 09:58:33;;;;;;;4.30;1.19;;;;;;;18.71;25.51;99319.16;1982171;82;20822;-76
2021/04/26 10:01:36;;;;;;;3.33;0.90;;;;;;;18.90;25.98;99319.31;1982972;79;24435;-76
2021/04/26 10:04:39;;;;;;;2.94;1.01;;;;;;;19.08;25.32;99315.09;1986466;81;20333;-76
2021/04/26 10:07:43;;;;;;;9.49;1.52;;;;;;;18.81;24.41;99315.25;1987079;81;20787;-73
2021/04/26 10:10:45;;;;;;;5.78;1.00;;;;;;;18.82;25.91;99303.81;1987349;81;20591;-76
2021/04/26 10:13:50;;;;;;;3.86;0.89;;;;;;;18.84;24.34;99315.13;1987819;81;20702;-76
2021/04/26 10:17:07;;;;;;;1.41;0.88;;;;;;;18.75;24.75;99297.06;1982863;79;23115;-76
2021/04/26 10:20:10;;;;;;;6.74;1.26;;;;;;;19.06;24.54;99299.34;1982122;81;20229;-77
2021/04/26 10:23:35;;;;;;;2.11;0.75;;;;;;;19.08;25.08;99294.03;1982084;81;20193;-77
2021/04/26 10:26:47;;;;;;;3.99;0.94;;;;;;;19.49;24.54;99298.44;1982388;81;20267;-77
2021/04/26 10:30:12;;;;;;;3.52;0.88;;;;;;;19.65;23.90;99295.19;1982670;81;20212;-77
2021/04/26 10:33:13;;;;;;;7.86;1.10;;;;;;;19.81;23.36;99283.91;1978530;82;20544;-77
2021/04/26 10:36:40;;;;;;;3.56;1.36;;;;;;;19.37;23.56;99282.28;1972622;82;20194;-77
2021/04/26 10:39:58;;;;;;;6.31;1.36;;;;;;;19.29;24.18;99279.97;1976122;82;20225;-77
2021/04/26 10:43:26;;;;;;;5.45;0.96;;;;;;;19.09;24.41;99272.06;1972417;82;20570;-77
2021/04/26 10:46:28;;;;;;;4.84;0.82;;;;;;;19.28;24.72;99257.19;1977253;79;21404;-77
2021/04/26 10:49:31;;;;;;;3.50;1.04;;;;;;;19.49;24.46;99268.59;1982711;81;20237;-77
2021/04/26 10:52:58;;;;;;;8.68;1.13;;;;;;;19.80;24.15;99269.03;1983186;81;20736;-76
2021/04/26 10:56:01;;;;;;;4.34;0.92;;;;;;;19.53;23.54;99254.38;1982728;81;20165;-76
2021/04/26 10:59:15;;;;;;;8.36;1.27;;;;;;;19.39;23.39;99243.56;1982238;81;20202;-75
2021/04/26 11:02:30;;;;;;;5.70;1.13;;;;;;;19.49;23.15;99243.13;1977181;79;21917;-75
2021/04/26 11:05:43;;;;;;;3.60;0.91;;;;;;;19.88;23.77;99237.91;1976739;82;20178;-78
2021/04/26 11:08:52;;;;;;;2.05;0.76;;;;;;;20.21;24.25;99219.69;1976948;82;20348;-77
2021/04/26 11:11:59;;;;;;;6.67;1.30;;;;;;;20.29;23.77;99216.72;1977839;82;20355;-77
2021/04/26 11:15:18;;;;;;;3.29;1.36;;;;;;;20.39;23.60;99220.63;1976890;82;20181;-77
2021/04/26 11:18:20;;;;;;;4.35;1.44;;;;;;;20.47;22.25;99210.63;1982451;81;20693;-76
2021/04/26 11:21:49;;;;;;;3.38;1.29;;;;;;;20.16;23.14;99205.88;1981059;81;20683;-76
2021/04/26 11:24:59;;;;;;;1.91;0.96;;;;;;;20.40;23.21;99206.50;1981857;81;20181;-75
2021/04/26 11:28:01;;;;;;;1.71;1.19;;;;;;;20.71;21.87;99202.44;1981496;81;20753;-77
2021/04/26 11:31:03;;;;;;;3.26;0.82;;;;;;;20.79;21.27;99192.34;1979448;80;21744;-76
2021/04/26 11:34:05;;;;;;;4.60;1.31;;;;;;;20.63;22.02;99184.31;1978317;82;20575;-77
2021/04/26 11:37:06;;;;;;;3.28;1.16;;;;;;;20.68;21.71;99170.94;1981954;81;20198;-76
2021/04/26 11:40:22;;;;;;;3.21;1.41;;;;;;;20.80;22.25;99172.94;1982306;81;20601;-75
2021/04/26 11:43:24;;;;;;;2.89;1.31;;;;;;;20.93;22.84;99155.56;1981044;81;20180;-76
2021/04/26 11:46:27;;;;;;;3.03;1.00;;;;;;;21.12;21.72;99161.63;1982403;79;24259;-75
2021/04/26 11:49:33;;;;;;;1.99;0.84;;;;;;;20.96;22.33;99158.06;1987143;81;20203;-76
2021/04/26 11:52:36;;;;;;;5.31;1.16;;;;;;;21.12;22.38;99147.56;1986656;81;20711;-76
2021/04/26 11:55:38;;;;;;;9.32;2.15;;;;;;;21.33;21.53;99153.56;1983972;81;20218;-76
2021/04/26 11:58:40;;;;;;;2.64;1.02;;;;;;;21.44;19.82;99137.16;1986464;81;20197;-76
2021/04/26 12:01:52;;;;;;;5.01;0.90;;;;;;;21.43;19.18;99133.66;1983447;79;23833;-76
2021/04/26 12:04:56;;;;;;;3.92;0.80;;;;;;;21.37;19.26;99126.06;1981648;81;20276;-76
2021/04/26 12:07:58;;;;;;;3.13;0.81;;;;;;;21.43;19.78;99123.09;1982319;81;20843;-75
2021/04/26 12:11:13;;;;;;;2.90;1.04;;;;;;;21.38;20.27;99120.72;1982257;81;20663;-76
2021/04/26 12:14:14;;;;;;;4.93;1.00;;;;;;;21.39;19.70;99109.19;1981496;81;20208;-75
2021/04/26 12:17:27;;;;;;;4.74;1.15;;;;;;;21.22;18.79;99103.91;1980956;81;21602;-76
2021/04/26 12:20:36;;;;;;;3.92;1.21;;;;;;;21.37;19.57;99105.78;1981588;81;20176;-76
2021/04/26 12:23:39;;;;;;;3.39;1.42;;;;;;;21.62;19.67;99099.19;1982993;81;20204;-78
2021/04/26 12:26:41;;;;;;;7.72;1.63;;;;;;;21.58;20.27;99087.94;1984063;81;20188;-79
2021/04/26 12:29:45;;;;;;;4.90;1.31;;;;;;;21.59;20.14;99092.28;1984510;81;20224;-82
2021/04/26 12:32:49;;;;;;;4.16;1.10;;;;;;;21.37;19.96;99095.22;1987512;81;23254;-79
2021/04/26 12:35:52;;;;;;;3.06;1.09;;;;;;;21.48;19.69;99078.78;1983539;81;20671;-78
2021/04/26 12:38:53;;;;;;;3.61;1.19;;;;;;;21.45;19.69;99076.31;1986144;81;20172;-77
2021/04/26 12:41:55;;;;;;;4.72;1.10;;;;;;;21.54;19.02;99080.22;1982485;81;20229;-76
2021/04/26 12:45:08;;;;;;;3.90;1.17;;;;;;;21.72;19.36;99081.88;1981248;81;20208;-77
2021/04/26 12:48:12;;;;;;;3.39;0.95;;;;;;;21.54;19.29;99074.94;1982721;79;20184;-74
2021/04/26 12:51:28;;;;;;;3.40;1.16;;;;;;;21.59;18.88;99087.00;1981369;82;20230;-76
2021/04/26 12:54:30;;;;;;;5.19;1.95;;;;;;;21.71;19.66;99069.59;1982421;81;20290;-75
2021/04/26 12:57:32;;;;;;;1.09;0.88;;;;;;;21.80;19.50;99077.03;1981966;81;20181;-76
2021/04/26 13:00:42;;;;;;;3.35;0.98;;;;;;;22.05;19.77;99071.25;1978817;80;20893;-76
2021/04/26 13:03:50;;;;;;;3.71;1.00;;;;;;;21.97;18.71;99066.38;1977178;82;20201;-76
2021/04/26 13:06:54;;;;;;;1.85;0.91;;;;;;;21.87;19.17;99061.69;1979475;82;21374;-78
2021/04/26 13:10:08;;;;;;;6.22;1.26;;;;;;;21.87;18.57;99053.75;1978135;82;20230;-78
2021/04/26 13:13:09;;;;;;;3.31;1.21;;;;;;;21.83;17.53;99052.22;1978352;82;20232;-77
2021/04/26 13:16:19;;;;;;;1.71;0.80;;;;;;;21.81;18.16;99057.59;1980366;79;20965;-78
2021/04/26 13:19:26;;;;;;;3.41;0.90;;;;;;;21.88;17.40;99043.09;1986049;82;20184;-78
2021/04/26 13:22:29;;;;;;;3.29;1.08;;;;;;;21.63;17.37;99050.69;1984833;81;20196;-78
2021/04/26 13:25:31;;;;;;;7.26;1.06;;;;;;;21.55;17.62;99037.91;1984265;81;20210;-78
2021/04/26 13:28:34;;;;;;;4.25;0.81;;;;;;;21.38;17.66;99030.03;1984527;82;20181;-78
2021/04/26 13:31:37;;;;;;;3.66;0.80;;;;;;;21.56;17.31;99034.31;1980200;79;56846;-76
2021/04/26 13:34:41;;;;;;;8.71;1.54;;;;;;;21.41;16.75;99017.50;1979766;82;20192;-76
2021/04/26 13:37:43;;;;;;;8.27;2.13;;;;;;;21.50;16.89;99024.06;1982213;82;20184;-77
2021/04/26 13:40:46;;;;;;;4.35;1.31;;;;;;;21.77;17.41;99019.06;1982517;82;20196;-79
2021/04/26 13:43:48;;;;;;;1.98;1.35;;;;;;;21.87;17.69;99020.22;1983597;81;20202;-77
2021/04/26 13:46:51;;;;;;;3.16;1.00;;;;;;;22.15;17.90;99016.06;1984769;79;25069;-76
2021/04/26 13:49:53;;;;;;;3.91;1.20;;;;;;;22.08;16.54;99010.25;1987501;81;20195;-76
2021/04/26 13:52:55;;;;;;;1.25;0.70;;;;;;;22.08;15.81;99014.69;1986175;81;20171;-76
2021/04/26 13:55:56;;;;;;;3.21;1.06;;;;;;;22.11;15.18;99010.09;1986605;81;20200;-75
2021/04/26 13:58:58;;;;;;;2.30;0.93;;;;;;;22.20;15.19;99014.84;1986879;81;20183;-74
2021/04/26 14:02:00;;;;;;;2.95;0.90;;;;;;;22.15;15.92;99008.13;1982676;81;21042;-73
2021/04/26 14:05:04;;;;;;;3.31;1.00;;;;;;;22.10;15.97;98996.97;1981206;81;20214;-75
2021/04/26 14:08:06;;;;;;;4.09;1.36;;;;;;;22.15;16.36;98994.91;1981764;81;20206;-74
2021/04/26 14:11:08;;;;;;;2.69;1.04;;;;;;;21.76;15.25;98990.94;1981243;81;20347;-74
2021/04/26 14:14:10;;;;;;;4.43;1.83;;;;;;;21.80;16.17;98986.31;1981441;81;20230;-74
2021/04/26 14:17:12;;;;;;;11.10;6.20;;;;;;;21.78;16.40;98982.91;1984842;81;22961;-74
2021/04/26 14:20:14;;;;;;;2.06;1.10;;;;;;;21.93;16.18;98982.88;1986565;81;20293;-74
2021/04/26 14:23:16;;;;;;;1.75;0.80;;;;;;;22.00;15.44;98975.44;1986822;81;20216;-74
2021/04/26 14:26:17;;;;;;;2.92;0.85;;;;;;;22.14;15.33;98972.91;1986198;81;20180;-76
2021/04/26 14:29:19;;;;;;;1.39;0.73;;;;;;;22.08;13.79;98956.50;1987099;81;20197;-74
2021/04/26 14:32:21;;;;;;;2.06;0.80;;;;;;;22.11;13.88;98956.38;1982578;79;55772;-75